Time;durP1;ratioP1;P1;durP2;ratioP2;P2;SDS_P1;SDS_P2;PMS_P1;PMS_P2;Temp;Humidity;BMP_temperature;BMP_pressure;BME280_temperature;BME280_humidity;BME280_pressure;Samples;Min_cycle;Max_cycle;Signal;HPM_P1;HPM_P2
2021/12/17 00:05:05;;;;;;;50.13;34.65;;;;;;;1.67;88.66;100260.44;4963937;28;20031;-60
2021/12/17 00:07:35;;;;;;;48.65;33.92;;;;;;;1.81;87.85;100262.56;4952040;28;20027;-60
2021/12/17 00:10:03;;;;;;;47.15;33.05;;;;;;;1.56;86.97;100211.22;4950773;28;20313;-60
2021/12/17 00:12:30;;;;;;;47.70;32.88;;;;;;;1.72;88.19;100261.13;4952739;28;20046;-59
2021/12/17 00:14:57;;;;;;;52.50;33.65;;;;;;;1.38;87.90;100204.94;4965793;28;20500;-60
2021/12/17 00:17:28;;;;;;;53.53;33.47;;;;;;;1.61;87.65;100259.81;4941444;28;20035;-60
2021/12/17 00:20:35;;;;;;;47.40;32.40;;;;;;;1.56;87.86;100269.34;4949862;28;20035;-60
2021/12/17 00:52:24;;;;;;;47.88;31.20;;;;;;;1.84;89.12;100212.88;4949184;28;20039;-59
2021/12/17 00:54:49;;;;;;;41.10;26.95;;;;;;;1.72;94.25;100171.38;4946704;28;20035;-60
2021/12/17 00:57:18;;;;;;;36.25;24.35;;;;;;;1.96;96.70;100171.44;4951717;28;20094;-59
2021/12/17 00:59:46;;;;;;;37.05;24.10;;;;;;;2.58;96.95;100225.78;4954313;28;20118;-60
2021/12/17 01:02:17;;;;;;;32.60;23.00;;;;;;;2.67;96.41;100215.19;4954634;28;20144;-60
2021/12/17 01:04:49;;;;;;;32.88;22.05;;;;;;;2.74;95.64;100208.06;4957515;28;20039;-60
2021/12/17 01:07:15;;;;;;;33.40;22.90;;;;;;;2.41;95.23;100168.19;4958213;28;20686;-60
2021/12/17 01:09:41;;;;;;;35.03;23.55;;;;;;;2.83;94.15;100213.75;4953781;28;20037;-60
2021/12/17 01:12:08;;;;;;;31.58;21.70;;;;;;;2.90;93.72;100211.75;4951601;28;20027;-60
2021/12/17 01:14:34;;;;;;;35.78;22.95;;;;;;;2.95;94.07;100217.56;4975627;28;20466;-59
2021/12/17 01:17:00;;;;;;;43.10;23.58;;;;;;;2.88;94.25;100211.84;4956594;28;20030;-60
2021/12/17 01:24:53;;;;;;;34.17;22.05;;;;;;;3.24;92.11;100219.03;4919491;28;20048;-59
2021/12/17 01:35:21;;;;;;;28.20;20.33;;;;;;;3.21;91.78;100179.75;4957494;28;20106;-59
2021/12/17 01:35:37;;;;;;;33.47;20.95;;;;;;;3.55;92.36;100229.88;4963025;28;20054;-59
2021/12/17 01:43:15;;;;;;;35.55;23.67;;;;;;;3.27;93.77;100226.66;4961591;28;20182;-60
2021/12/17 01:45:42;;;;;;;34.53;23.98;;;;;;;3.29;94.22;100236.88;4959804;28;20038;-60
2021/12/17 01:48:13;;;;;;;31.75;22.88;;;;;;;3.34;94.09;100237.53;4959445;28;20042;-59
2021/12/17 02:01:37;;;;;;;30.55;21.15;;;;;;;2.94;90.83;100259.59;4978532;28;20053;-60
2021/12/17 02:04:04;;;;;;;28.65;20.92;;;;;;;2.78;90.52;100246.47;4955122;28;20034;-59
2021/12/17 02:06:33;;;;;;;29.40;21.73;;;;;;;2.73;90.74;100240.66;4962739;28;20086;-59
2021/12/17 02:09:00;;;;;;;31.98;21.23;;;;;;;2.31;91.47;100193.31;4957992;28;20039;-59
2021/12/17 02:19:47;;;;;;;30.23;21.35;;;;;;;2.54;90.17;100208.78;4965186;28;20109;-60
2021/12/17 02:32:48;;;;;;;31.85;21.85;;;;;;;2.19;89.41;100183.50;4963445;28;20568;-60
2021/12/17 02:35:27;;;;;;;31.73;22.95;;;;;;;2.51;93.50;100243.13;4962220;28;20037;-60
2021/12/17 02:37:54;;;;;;;30.15;22.55;;;;;;;2.48;94.79;100238.09;4974538;28;20363;-60
2021/12/17 02:45:32;;;;;;;32.22;21.23;;;;;;;2.94;94.76;100240.75;4974620;28;20547;-59
2021/12/17 02:48:05;;;;;;;29.75;20.73;;;;;;;2.82;94.04;100204.34;4973706;28;20081;-60
2021/12/17 02:50:33;;;;;;;29.33;21.02;;;;;;;2.77;93.59;100187.44;4961942;28;20138;-60
2021/12/17 02:53:01;;;;;;;29.65;19.40;;;;;;;2.99;94.23;100219.13;4977774;28;20465;-60
2021/12/17 02:55:28;;;;;;;28.98;20.30;;;;;;;3.14;94.13;100232.31;4942843;28;20096;-59
2021/12/17 02:57:54;;;;;;;30.13;21.05;;;;;;;3.08;94.14;100226.53;4952425;28;20031;-60
2021/12/17 03:00:20;;;;;;;30.15;19.80;;;;;;;3.13;94.21;100233.22;4959983;28;20035;-59
2021/12/17 03:02:46;;;;;;;28.23;19.77;;;;;;;3.11;93.88;100225.56;4961941;28;20045;-59
2021/12/17 03:05:12;;;;;;;29.60;21.33;;;;;;;3.09;94.14;100217.06;4959632;28;20034;-59
2021/12/17 03:07:41;;;;;;;29.50;21.35;;;;;;;3.16;94.39;100220.22;4956289;28;20037;-59
2021/12/17 03:10:10;;;;;;;28.17;20.25;;;;;;;2.78;94.74;100164.25;4960848;28;20588;-59
2021/12/17 03:12:45;;;;;;;30.15;20.33;;;;;;;3.17;95.70;100207.31;4977592;28;20049;-60
2021/12/17 03:25:35;;;;;;;29.08;20.42;;;;;;;3.23;95.20;100206.25;4953076;28;20089;-59
2021/12/17 03:28:00;;;;;;;29.48;20.13;;;;;;;3.25;94.58;100191.63;4978463;28;20034;-59
2021/12/17 03:30:25;;;;;;;30.98;21.45;;;;;;;2.88;94.42;100146.75;4951885;28;20027;-60
2021/12/17 03:32:51;;;;;;;27.70;20.50;;;;;;;2.98;94.13;100160.94;4962474;28;20898;-60
2021/12/17 03:35:16;;;;;;;25.95;17.30;;;;;;;3.24;93.44;100197.66;4976167;28;20412;-59
2021/12/17 03:37:42;;;;;;;27.10;20.20;;;;;;;3.17;92.96;100197.03;4957803;28;20513;-60
2021/12/17 03:40:07;;;;;;;31.02;21.10;;;;;;;3.13;93.27;100204.94;4959850;28;20035;-60
2021/12/17 03:42:33;;;;;;;26.20;19.85;;;;;;;3.17;93.74;100209.06;4977562;28;20038;-59
2021/12/17 03:44:58;;;;;;;28.02;18.92;;;;;;;3.13;94.26;100190.34;4953507;28;20035;-60
2021/12/17 03:47:23;;;;;;;30.90;21.00;;;;;;;3.15;94.27;100201.41;4954079;28;20034;-60
2021/12/17 03:49:49;;;;;;;25.65;18.67;;;;;;;2.74;94.71;100138.72;4978115;28;20081;-59
2021/12/17 03:52:16;;;;;;;28.65;20.42;;;;;;;3.17;94.25;100206.50;4960859;28;20042;-59
2021/12/17 03:54:42;;;;;;;26.40;18.13;;;;;;;3.12;93.59;100192.97;4950133;28;20113;-59
2021/12/17 03:57:11;;;;;;;29.50;20.38;;;;;;;3.05;94.18;100200.09;4959933;28;20141;-59
2021/12/17 03:59:36;;;;;;;30.65;19.85;;;;;;;2.88;94.36;100157.88;4962927;28;20119;-60
2021/12/17 04:02:02;;;;;;;26.63;18.88;;;;;;;3.18;93.97;100198.72;4954938;28;20658;-60
2021/12/17 04:04:28;;;;;;;26.63;19.05;;;;;;;3.20;93.99;100189.22;4955747;28;21411;-60
2021/12/17 04:06:53;;;;;;;28.10;20.88;;;;;;;3.04;93.97;100178.69;4949690;28;20833;-60
2021/12/17 04:09:21;;;;;;;27.58;18.73;;;;;;;3.13;94.48;100185.19;4961802;28;20043;-60
2021/12/17 04:11:47;;;;;;;29.65;20.13;;;;;;;3.17;93.50;100180.78;4960534;28;20768;-59
2021/12/17 04:14:13;;;;;;;23.45;16.45;;;;;;;3.13;93.89;100180.06;4952553;28;20031;-59
2021/12/17 04:16:39;;;;;;;29.60;20.60;;;;;;;3.10;94.11;100179.34;4954925;28;20062;-59
2021/12/17 04:19:04;;;;;;;28.95;20.30;;;;;;;2.81;94.58;100135.88;4961750;28;20046;-59
2021/12/17 04:21:30;;;;;;;30.02;21.25;;;;;;;3.11;94.19;100175.88;4952618;28;20031;-59
2021/12/17 04:23:56;;;;;;;29.88;21.45;;;;;;;3.09;94.27;100181.09;4961076;28;20113;-60
2021/12/17 04:26:23;;;;;;;28.75;19.77;;;;;;;3.05;94.34;100171.81;4960042;28;20041;-59
2021/12/17 04:28:51;;;;;;;29.88;21.05;;;;;;;3.00;94.22;100160.88;4958866;28;20027;-60
2021/12/17 04:31:20;;;;;;;32.97;22.10;;;;;;;2.63;95.25;100103.19;4976794;28;20121;-60
2021/12/17 04:33:46;;;;;;;29.52;19.75;;;;;;;2.87;94.39;100117.66;4977394;28;20119;-59
2021/12/17 04:36:17;;;;;;;21.52;14.68;;;;;;;2.87;93.96;100115.09;4939963;28;20397;-59
2021/12/17 04:38:43;;;;;;;28.15;19.70;;;;;;;3.01;93.32;100142.84;4957616;28;20022;-60
2021/12/17 04:43:51;;;;;;;26.13;18.13;;;;;;;3.09;92.92;100157.97;4962833;28;20483;-59
2021/12/17 04:59:38;;;;;;;25.33;16.10;;;;;;;3.22;90.47;100141.16;4963966;28;20041;-59
2021/12/17 05:02:05;;;;;;;26.15;18.50;;;;;;;3.00;91.00;100101.78;4963770;28;20031;-60
2021/12/17 05:04:30;;;;;;;22.10;14.93;;;;;;;3.23;91.65;100129.13;4966568;28;20046;-60
2021/12/17 05:06:55;;;;;;;29.30;19.08;;;;;;;3.19;92.52;100125.84;4954817;28;20034;-59
2021/12/17 05:10:14;;;;;;;22.25;15.68;;;;;;;3.19;92.20;100130.97;4942811;28;20570;-59
2021/12/17 05:22:57;;;;;;;23.90;15.95;;;;;;;2.71;92.20;100029.25;4963913;28;20091;-59
2021/12/17 05:25:26;;;;;;;22.55;15.18;;;;;;;3.08;92.93;100079.16;4951575;28;20035;-59
2021/12/17 05:27:59;;;;;;;28.30;19.13;;;;;;;3.13;93.54;100071.28;4964435;28;20022;-60
2021/12/17 05:30:26;;;;;;;27.02;19.27;;;;;;;3.02;93.75;100064.81;4963735;28;20030;-59
2021/12/17 05:32:52;;;;;;;26.75;18.52;;;;;;;3.01;93.42;100068.31;4963443;28;20034;-59
2021/12/17 05:35:17;;;;;;;24.52;18.05;;;;;;;3.00;93.38;100050.38;4964772;28;20042;-59
2021/12/17 05:37:43;;;;;;;24.38;17.52;;;;;;;2.91;93.28;100053.31;4961921;28;20031;-59
2021/12/17 05:40:09;;;;;;;24.48;16.55;;;;;;;3.04;92.70;100049.34;4964825;28;20039;-59
2021/12/17 05:42:34;;;;;;;25.90;17.13;;;;;;;3.10;93.25;100050.84;4959530;28;20089;-59
2021/12/17 05:45:08;;;;;;;22.02;15.82;;;;;;;3.22;92.92;100033.19;4959376;28;20046;-60
2021/12/17 05:47:33;;;;;;;26.70;16.30;;;;;;;3.15;92.57;100021.47;4964549;28;20485;-59
2021/12/17 05:49:59;;;;;;;24.52;16.80;;;;;;;3.17;92.49;100029.94;4971842;28;20042;-60
2021/12/17 05:52:24;;;;;;;28.00;18.38;;;;;;;3.17;92.16;100024.00;4947263;28;20161;-60
2021/12/17 05:54:50;;;;;;;23.33;17.08;;;;;;;3.27;91.88;100038.97;4972503;28;20141;-59
2021/12/17 05:57:15;;;;;;;25.38;16.83;;;;;;;3.16;91.75;100024.88;4961575;28;20397;-59
2021/12/17 05:59:41;;;;;;;25.70;17.67;;;;;;;3.27;91.32;100031.25;4960667;28;20038;-59
2021/12/17 06:02:11;;;;;;;27.20;18.05;;;;;;;2.88;91.56;99967.75;4963783;28;20417;-59
2021/12/17 06:04:37;;;;;;;31.08;18.58;;;;;;;2.97;92.79;100005.06;4973363;28;20045;-59
2021/12/17 06:07:02;;;;;;;27.25;17.45;;;;;;;3.06;92.18;100019.28;4962053;28;20117;-58
2021/12/17 06:09:28;;;;;;;23.27;16.52;;;;;;;2.97;91.84;100022.22;4960359;28;20371;-59
2021/12/17 06:11:53;;;;;;;25.95;16.88;;;;;;;3.08;92.01;100015.78;4956298;28;20471;-59
2021/12/17 06:14:19;;;;;;;27.75;18.02;;;;;;;3.16;91.88;100035.16;4961487;28;20038;-59
2021/12/17 06:16:44;;;;;;;23.92;15.77;;;;;;;2.81;90.99;99956.06;4961485;28;20034;-60
2021/12/17 06:19:10;;;;;;;22.30;15.15;;;;;;;3.10;90.17;99992.56;4946368;28;20045;-59
2021/12/17 06:21:35;;;;;;;24.45;15.40;;;;;;;2.85;89.96;99951.63;4958719;28;20558;-60
2021/12/17 06:24:00;;;;;;;21.05;14.65;;;;;;;3.11;89.37;99995.97;4962088;28;20026;-59
2021/12/17 06:26:26;;;;;;;24.35;15.70;;;;;;;3.23;89.98;100004.00;4960747;28;20545;-59
2021/12/17 06:28:51;;;;;;;23.52;16.55;;;;;;;3.22;91.03;99999.75;4961396;28;20121;-59
2021/12/17 06:31:19;;;;;;;24.85;16.08;;;;;;;3.16;90.26;99988.88;4954260;28;20039;-60
2021/12/17 06:33:45;;;;;;;23.27;16.00;;;;;;;3.19;89.88;100010.16;4969150;28;20060;-60
2021/12/17 06:36:10;;;;;;;20.70;15.13;;;;;;;3.23;89.46;100009.16;4958216;28;20786;-59
2021/12/17 06:38:36;;;;;;;25.05;16.48;;;;;;;3.23;89.89;100013.44;4961755;28;20027;-59
2021/12/17 06:41:01;;;;;;;22.77;14.95;;;;;;;3.22;90.49;100017.75;4971634;28;20034;-60
2021/12/17 06:43:33;;;;;;;25.00;16.52;;;;;;;3.24;90.70;100015.13;4959185;28;20035;-59
2021/12/17 06:46:17;;;;;;;25.65;17.98;;;;;;;3.26;90.90;100010.75;4955169;28;20034;-59
2021/12/17 06:48:43;;;;;;;25.75;16.45;;;;;;;2.99;91.85;99953.63;4958968;28;20100;-60
2021/12/17 07:10:05;;;;;;;26.95;17.35;;;;;;;3.18;92.10;100028.25;4964114;28;21404;-59
2021/12/17 07:17:56;;;;;;;23.60;15.68;;;;;;;2.95;93.89;99988.88;4962561;28;20057;-60
2021/12/17 07:29:07;;;;;;;25.65;16.45;;;;;;;3.20;91.80;100014.41;4946715;28;20046;-60
2021/12/17 07:33:40;;;;;;;26.83;18.70;;;;;;;3.18;92.36;100035.94;4962524;28;20041;-59
2021/12/17 07:36:10;;;;;;;24.38;17.48;;;;;;;3.21;92.07;100041.81;4960168;28;20481;-60
2021/12/17 07:38:38;;;;;;;25.15;17.65;;;;;;;3.17;91.62;100042.81;4961650;28;20035;-60
2021/12/17 07:41:05;;;;;;;27.95;18.27;;;;;;;3.16;91.33;100051.44;4961599;28;20030;-59
2021/12/17 07:43:40;;;;;;;25.88;18.17;;;;;;;3.07;90.84;100041.53;4964241;28;20121;-59
2021/12/17 07:46:09;;;;;;;26.60;17.20;;;;;;;3.16;90.78;100063.44;4959729;28;20027;-59
2021/12/17 07:48:35;;;;;;;29.17;17.10;;;;;;;3.06;91.32;100057.84;4952234;28;20575;-59
2021/12/17 07:51:02;;;;;;;26.75;17.23;;;;;;;3.06;91.65;100062.97;4934611;28;20054;-59
2021/12/17 07:53:29;;;;;;;25.98;16.38;;;;;;;3.11;91.32;100066.19;4972652;28;20019;-60
2021/12/17 07:55:55;;;;;;;24.98;16.90;;;;;;;3.04;90.82;100082.75;4961760;28;20378;-60
2021/12/17 07:58:21;;;;;;;25.10;16.45;;;;;;;3.06;90.93;100086.09;4957735;28;20026;-60
2021/12/17 08:00:46;;;;;;;24.08;16.73;;;;;;;2.56;90.86;100037.56;4977987;28;20034;-60
2021/12/17 08:03:14;;;;;;;30.23;18.83;;;;;;;2.87;91.37;100109.13;4961604;28;20043;-60
2021/12/17 08:05:42;;;;;;;34.78;20.02;;;;;;;2.76;91.73;100101.00;4960290;28;20034;-60
2021/12/17 08:08:07;;;;;;;28.48;18.45;;;;;;;2.91;90.95;100110.66;4945970;28;20038;-57
2021/12/17 08:10:33;;;;;;;24.65;19.10;;;;;;;2.91;90.71;100105.53;4958812;28;20018;-59
2021/12/17 08:12:59;;;;;;;27.85;18.75;;;;;;;2.95;89.67;100112.22;4961917;28;20458;-59
2021/12/17 08:15:31;;;;;;;25.02;17.52;;;;;;;2.60;89.68;100051.94;4959040;28;20023;-60
2021/12/17 08:26:08;;;;;;;32.10;21.13;;;;;;;2.82;88.43;100086.16;4964112;28;20676;-59
2021/12/17 08:29:24;;;;;;;31.52;20.60;;;;;;;2.88;88.55;100098.78;4957548;28;20061;-60
2021/12/17 08:31:25;;;;;;;31.55;21.35;;;;;;;2.59;88.42;100061.38;4955372;28;20043;-60
2021/12/17 08:33:50;;;;;;;28.58;20.38;;;;;;;2.79;88.00;100109.44;4964555;28;20034;-59
2021/12/17 08:36:16;;;;;;;29.67;19.40;;;;;;;2.81;87.76;100104.19;4965125;28;20396;-60
2021/12/17 08:38:45;;;;;;;26.63;18.83;;;;;;;2.86;88.58;100110.00;4967522;28;20098;-59
2021/12/17 08:41:12;;;;;;;27.92;20.27;;;;;;;2.73;88.33;100098.53;4963351;28;20495;-60
2021/12/17 08:43:37;;;;;;;30.30;20.35;;;;;;;2.76;88.51;100108.72;4954182;28;20527;-60
2021/12/17 08:46:03;;;;;;;30.48;20.73;;;;;;;2.72;88.63;100094.28;4965372;28;20031;-60
2021/12/17 08:48:28;;;;;;;29.40;19.63;;;;;;;2.79;88.40;100101.72;4980591;28;20031;-60
2021/12/17 08:50:54;;;;;;;26.42;18.70;;;;;;;2.41;88.00;100037.25;4963202;28;20085;-59
2021/12/17 08:53:19;;;;;;;29.25;18.98;;;;;;;2.68;88.44;100079.00;4980557;28;20038;-59
2021/12/17 08:55:45;;;;;;;28.98;19.13;;;;;;;2.67;88.12;100069.63;4965720;28;20046;-60
2021/12/17 08:58:13;;;;;;;28.85;19.95;;;;;;;2.30;88.22;100034.25;4961359;28;20026;-60
2021/12/17 09:00:40;;;;;;;26.50;17.75;;;;;;;2.47;88.96;100069.53;4965747;28;20034;-59
2021/12/17 09:03:09;;;;;;;28.05;19.08;;;;;;;2.47;89.84;100078.06;4965642;28;20129;-60
2021/12/17 09:05:37;;;;;;;27.38;18.63;;;;;;;2.53;90.56;100077.00;4962313;28;20034;-60
2021/12/17 09:08:04;;;;;;;28.98;19.42;;;;;;;2.75;91.65;100086.47;4965581;28;20136;-59
2021/12/17 09:10:29;;;;;;;28.67;20.27;;;;;;;2.40;91.51;100027.03;4963059;28;20110;-59
2021/12/17 09:12:55;;;;;;;26.67;18.58;;;;;;;2.46;92.30;100032.78;4979993;28;20158;-60
2021/12/17 09:15:20;;;;;;;23.92;17.58;;;;;;;2.78;92.28;100078.66;4961126;28;20046;-60
2021/12/17 09:17:45;;;;;;;23.13;17.23;;;;;;;2.44;91.79;100018.31;4960620;28;20062;-59
2021/12/17 09:20:11;;;;;;;24.23;16.98;;;;;;;2.78;92.47;100089.75;4973209;28;20120;-60
2021/12/17 09:22:36;;;;;;;25.10;16.88;;;;;;;2.83;92.36;100080.16;4979052;28;20118;-60
2021/12/17 09:25:03;;;;;;;24.70;17.63;;;;;;;2.93;92.38;100085.75;4964893;28;20057;-59
2021/12/17 09:27:28;;;;;;;22.98;16.45;;;;;;;2.89;92.64;100087.59;4963251;28;20065;-60
2021/12/17 09:29:53;;;;;;;25.70;17.20;;;;;;;2.77;92.48;100082.94;4966308;28;20398;-60
2021/12/17 09:32:20;;;;;;;24.20;16.50;;;;;;;2.83;92.87;100082.72;4948264;28;20039;-60
2021/12/17 09:34:46;;;;;;;23.38;16.55;;;;;;;2.94;92.16;100068.59;4963204;28;20097;-60
2021/12/17 09:37:13;;;;;;;26.15;16.42;;;;;;;3.08;91.72;100086.88;4949019;28;20766;-59
2021/12/17 09:39:38;;;;;;;22.30;15.77;;;;;;;3.07;90.95;100088.63;4956706;28;20545;-60
2021/12/17 09:42:04;;;;;;;23.30;16.35;;;;;;;3.03;91.25;100083.66;4964866;28;20034;-61
2021/12/17 09:44:29;;;;;;;23.10;16.25;;;;;;;3.10;91.24;100086.81;4964382;28;20078;-60
2021/12/17 09:46:57;;;;;;;24.25;16.77;;;;;;;3.02;91.06;100082.81;4964072;28;20069;-60
2021/12/17 09:49:23;;;;;;;23.00;15.77;;;;;;;3.03;90.48;100074.22;4961736;28;20019;-59
2021/12/17 09:51:49;;;;;;;21.73;16.33;;;;;;;2.98;89.90;100065.03;4964078;28;20062;-59
2021/12/17 09:54:15;;;;;;;24.80;16.77;;;;;;;3.07;90.09;100080.06;4980405;28;20430;-59
2021/12/17 09:56:41;;;;;;;21.33;14.88;;;;;;;2.82;89.77;100029.66;4962210;28;20035;-60
2021/12/17 09:59:07;;;;;;;21.38;15.52;;;;;;;2.98;89.66;100039.34;4957791;28;20029;-60
2021/12/17 10:01:39;;;;;;;22.38;16.15;;;;;;;3.14;88.81;100058.38;4960786;28;20035;-60
2021/12/17 10:04:31;;;;;;;21.02;15.45;;;;;;;3.29;89.30;100072.34;4960727;28;20038;-60
2021/12/17 10:07:15;;;;;;;26.55;16.85;;;;;;;3.30;88.86;100061.13;4964928;28;20046;-59
2021/12/17 10:09:51;;;;;;;25.38;15.20;;;;;;;3.23;88.30;100029.72;4962571;28;20431;-59
2021/12/17 10:12:22;;;;;;;24.17;16.52;;;;;;;3.42;88.17;100045.22;4965243;28;20112;-59
2021/12/17 10:15:17;;;;;;;22.42;16.00;;;;;;;3.47;88.53;100043.28;4961542;28;20073;-60
2021/12/17 10:17:51;;;;;;;23.95;16.17;;;;;;;3.45;88.27;100039.13;4968784;28;20042;-60
2021/12/17 10:20:16;;;;;;;23.10;15.82;;;;;;;3.34;88.14;100013.00;4963192;28;20049;-60
2021/12/17 10:22:46;;;;;;;21.77;15.27;;;;;;;3.60;87.44;100040.19;4962800;28;20027;-60
2021/12/17 10:25:12;;;;;;;24.13;15.40;;;;;;;3.62;87.68;100041.78;4978942;28;20019;-60
2021/12/17 10:27:40;;;;;;;20.80;14.13;;;;;;;3.36;87.54;99983.75;4958706;28;20493;-60
2021/12/17 10:30:13;;;;;;;20.80;14.73;;;;;;;3.70;87.11;100035.47;4965113;28;20019;-60
2021/12/17 10:32:42;;;;;;;22.05;15.35;;;;;;;3.84;86.16;100033.16;4964755;28;20027;-59
2021/12/17 10:35:11;;;;;;;21.65;15.38;;;;;;;3.97;86.01;100023.97;4972806;28;20105;-59
2021/12/17 10:37:45;;;;;;;22.27;15.47;;;;;;;4.06;84.60;100029.63;4964967;28;20039;-60
2021/12/17 10:40:20;;;;;;;23.30;15.55;;;;;;;4.11;85.11;100022.53;4943083;28;20093;-60
2021/12/17 10:42:56;;;;;;;23.13;15.85;;;;;;;4.12;85.13;100004.44;4949015;28;20034;-59
2021/12/17 10:45:27;;;;;;;24.17;16.10;;;;;;;4.37;84.10;100003.31;4976876;28;20085;-60
2021/12/17 10:48:13;;;;;;;20.90;14.77;;;;;;;4.10;84.99;99953.94;4961196;28;20035;-60
2021/12/17 10:50:38;;;;;;;20.02;14.43;;;;;;;4.52;83.53;100001.78;4977639;28;20029;-60
2021/12/17 10:53:07;;;;;;;23.15;14.65;;;;;;;4.46;84.18;99984.88;4978487;28;20035;-59
2021/12/17 10:55:33;;;;;;;23.43;14.67;;;;;;;4.49;82.86;99982.16;4958013;28;20034;-59
2021/12/17 10:57:59;;;;;;;20.80;15.65;;;;;;;4.51;84.08;99989.78;4957324;28;20033;-60
2021/12/17 11:00:25;;;;;;;19.52;14.30;;;;;;;4.40;83.21;99960.22;4963231;28;20022;-60
2021/12/17 11:02:51;;;;;;;22.30;15.60;;;;;;;4.72;82.19;99981.03;4952203;28;20065;-60
2021/12/17 11:05:17;;;;;;;19.52;14.18;;;;;;;4.66;80.71;99942.69;4956361;28;20062;-60
2021/12/17 11:07:50;;;;;;;20.08;14.32;;;;;;;4.77;79.95;99973.91;4961059;28;20089;-60
2021/12/17 11:10:17;;;;;;;17.40;12.75;;;;;;;4.81;80.80;99967.69;4960871;28;20117;-61
2021/12/17 11:12:45;;;;;;;18.42;12.45;;;;;;;4.76;80.41;99969.69;4961296;28;20019;-59
2021/12/17 11:15:19;;;;;;;17.88;13.25;;;;;;;4.86;81.83;99956.34;4974959;28;20397;-60
2021/12/17 11:17:53;;;;;;;18.85;13.32;;;;;;;4.95;80.04;99956.72;4958917;28;20268;-61
2021/12/17 11:20:26;;;;;;;17.77;12.43;;;;;;;4.91;78.44;99952.63;4961936;28;20031;-60
2021/12/17 11:22:53;;;;;;;17.15;12.45;;;;;;;4.77;77.32;99894.03;4960002;28;20026;-60
2021/12/17 11:25:21;;;;;;;18.00;13.05;;;;;;;5.03;77.77;99943.44;4958804;28;20094;-60
2021/12/17 11:27:47;;;;;;;18.38;13.07;;;;;;;5.11;77.31;99943.91;4959555;28;20114;-60
2021/12/17 11:30:22;;;;;;;18.30;12.55;;;;;;;5.27;75.94;99937.97;4956675;28;20039;-60
2021/12/17 11:32:48;;;;;;;18.17;11.65;;;;;;;5.17;75.79;99922.13;4960888;28;20106;-60
2021/12/17 11:35:16;;;;;;;17.58;11.38;;;;;;;5.29;74.14;99938.72;4962410;28;20042;-60
2021/12/17 11:37:44;;;;;;;16.95;11.65;;;;;;;5.38;73.44;99933.09;4962489;28;20031;-60
2021/12/17 11:40:15;;;;;;;13.80;10.98;;;;;;;5.41;73.20;99930.34;4977905;28;20807;-61
2021/12/17 11:42:59;;;;;;;15.88;10.85;;;;;;;5.16;73.69;99874.03;4944523;28;20031;-60
2021/12/17 11:45:26;;;;;;;18.23;11.63;;;;;;;5.23;72.39;99880.56;4960057;28;20038;-60
2021/12/17 11:47:54;;;;;;;15.63;11.10;;;;;;;5.54;73.12;99926.22;4963191;28;20035;-60
2021/12/17 11:50:20;;;;;;;14.98;10.73;;;;;;;5.64;72.26;99908.53;4964167;28;20533;-61
2021/12/17 11:52:51;;;;;;;17.30;12.20;;;;;;;5.44;73.67;99872.59;4962569;28;20058;-60
2021/12/17 11:55:34;;;;;;;18.90;12.43;;;;;;;5.67;74.14;99912.66;4957083;28;20035;-60
2021/12/17 11:58:02;;;;;;;16.52;12.32;;;;;;;5.59;74.29;99906.16;4950113;28;20043;-60
2021/12/17 12:00:34;;;;;;;16.90;12.45;;;;;;;5.64;74.00;99897.34;4976103;28;20549;-60
2021/12/17 12:03:19;;;;;;;17.15;12.30;;;;;;;5.62;73.99;99891.44;4951940;28;20027;-60
2021/12/17 12:05:52;;;;;;;19.42;12.30;;;;;;;5.65;72.52;99881.78;4959096;28;20027;-60
2021/12/17 12:08:40;;;;;;;18.83;12.93;;;;;;;5.71;73.31;99888.34;4940594;28;20137;-61
2021/12/17 12:11:07;;;;;;;17.52;11.20;;;;;;;5.41;71.62;99845.22;4957971;28;20041;-61
2021/12/17 12:13:36;;;;;;;17.13;11.48;;;;;;;5.63;73.17;99870.72;4955469;28;20039;-60
2021/12/17 12:16:04;;;;;;;17.55;12.10;;;;;;;5.67;73.29;99855.91;4960770;28;20042;-60
2021/12/17 12:18:50;;;;;;;16.55;11.07;;;;;;;5.70;72.42;99858.31;4943477;28;20537;-60
2021/12/17 12:21:19;;;;;;;15.48;11.13;;;;;;;5.79;73.42;99855.25;4954603;28;20125;-60
2021/12/17 12:23:49;;;;;;;14.98;10.80;;;;;;;5.87;72.37;99847.06;4962959;28;20018;-60
2021/12/17 12:26:23;;;;;;;17.98;11.85;;;;;;;5.85;72.14;99829.06;4951298;28;20027;-60
2021/12/17 12:28:50;;;;;;;15.85;10.90;;;;;;;6.10;70.97;99840.66;4959218;28;20031;-66
2021/12/17 12:31:25;;;;;;;17.00;11.00;;;;;;;6.29;70.65;99851.59;4962302;28;20030;-66
2021/12/17 12:34:03;;;;;;;16.13;10.75;;;;;;;6.33;69.61;99852.25;4959736;28;20030;-65
2021/12/17 12:36:47;;;;;;;15.65;10.75;;;;;;;6.37;70.32;99847.75;4961396;28;20037;-65
2021/12/17 12:39:22;;;;;;;17.35;10.23;;;;;;;6.32;70.75;99845.44;4957250;28;20094;-65
2021/12/17 12:42:16;;;;;;;13.27;9.60;;;;;;;6.34;70.25;99841.03;4942531;28;20027;-65
2021/12/17 12:44:41;;;;;;;15.63;10.20;;;;;;;6.18;70.46;99804.91;4956714;28;20474;-65
2021/12/17 12:47:19;;;;;;;18.15;12.50;;;;;;;6.11;76.14;99794.06;4961420;28;20038;-64
2021/12/17 12:49:52;;;;;;;18.83;13.93;;;;;;;6.40;76.09;99821.75;4940305;28;20027;-64
2021/12/17 12:52:24;;;;;;;14.23;10.57;;;;;;;6.27;72.71;99816.47;4942706;28;20031;-64
2021/12/17 12:54:53;;;;;;;15.52;10.30;;;;;;;6.39;70.17;99839.00;4956777;28;20027;-65
2021/12/17 12:57:28;;;;;;;14.68;10.70;;;;;;;6.41;72.03;99839.75;4954103;28;20031;-66
2021/12/17 12:59:55;;;;;;;16.45;11.13;;;;;;;6.41;72.45;99832.00;4956510;28;20034;-65
2021/12/17 13:02:25;;;;;;;15.45;10.50;;;;;;;6.49;72.96;99823.81;4973043;28;20035;-65
2021/12/17 13:04:54;;;;;;;13.43;8.82;;;;;;;6.52;73.28;99826.22;4958752;28;20026;-65
2021/12/17 13:07:44;;;;;;;12.07;8.10;;;;;;;6.61;71.94;99822.25;4962276;28;20384;-64
2021/12/17 13:10:32;;;;;;;14.93;9.35;;;;;;;6.66;69.14;99823.66;4959086;28;20031;-65
2021/12/17 13:13:03;;;;;;;14.95;9.45;;;;;;;6.71;67.74;99824.19;4959860;28;20114;-65
2021/12/17 13:21:17;;;;;;;13.88;9.07;;;;;;;6.61;68.33;99812.75;4969704;28;20051;-65
2021/12/17 13:23:49;;;;;;;12.77;8.38;;;;;;;6.63;67.63;99803.16;4956946;28;20035;-65
2021/12/17 13:26:15;;;;;;;14.65;9.05;;;;;;;6.41;67.81;99758.84;4962137;28;20034;-64
2021/12/17 13:28:54;;;;;;;14.45;9.23;;;;;;;6.45;67.81;99747.41;4978880;28;20029;-65
2021/12/17 13:31:29;;;;;;;13.38;8.75;;;;;;;6.64;66.77;99752.28;4966625;28;20027;-65
2021/12/17 13:33:55;;;;;;;15.85;9.57;;;;;;;7.07;65.92;99789.31;4962974;28;20031;-65
2021/12/17 13:36:20;;;;;;;14.85;10.23;;;;;;;7.02;65.74;99783.59;4965960;28;20042;-65
2021/12/17 13:38:45;;;;;;;16.00;10.05;;;;;;;7.04;65.22;99771.38;4966043;28;20111;-65
2021/12/17 13:41:11;;;;;;;15.32;10.38;;;;;;;7.15;66.40;99782.84;4963451;28;20037;-65
2021/12/17 13:43:39;;;;;;;15.50;10.63;;;;;;;7.28;64.47;99768.22;4980295;28;20743;-65
2021/12/17 13:46:05;;;;;;;13.48;8.27;;;;;;;7.20;69.07;99773.88;4965147;28;20038;-65
2021/12/17 13:48:31;;;;;;;12.10;7.82;;;;;;;7.03;72.68;99767.16;4965480;28;20386;-64
2021/12/17 13:50:57;;;;;;;11.13;7.90;;;;;;;7.00;74.57;99766.50;4963044;28;20031;-65
2021/12/17 13:53:22;;;;;;;11.85;8.00;;;;;;;6.76;73.92;99727.47;4925888;28;20402;-64
2021/12/17 13:55:49;;;;;;;11.25;8.35;;;;;;;7.02;72.49;99762.91;4965456;28;20110;-64
2021/12/17 13:58:24;;;;;;;11.85;8.30;;;;;;;6.95;70.50;99758.19;4976709;28;20298;-65
2021/12/17 14:00:55;;;;;;;15.63;8.77;;;;;;;6.89;71.22;99760.22;4947273;28;20030;-64
2021/12/17 14:03:23;;;;;;;11.10;7.82;;;;;;;6.95;71.80;99769.38;4958454;28;20634;-65
2021/12/17 14:05:57;;;;;;;13.43;9.32;;;;;;;6.63;71.50;99717.03;4963941;28;20035;-64
2021/12/17 14:08:22;;;;;;;12.38;9.02;;;;;;;6.80;69.73;99732.34;4964106;28;20081;-64
2021/12/17 14:10:49;;;;;;;12.55;9.10;;;;;;;7.01;67.85;99765.56;4978505;28;20031;-64
2021/12/17 14:13:21;;;;;;;12.55;9.40;;;;;;;7.06;66.23;99774.75;4963423;28;20118;-65
2021/12/17 14:15:48;;;;;;;14.05;8.35;;;;;;;7.14;65.21;99766.50;4953071;28;20637;-64
2021/12/17 14:18:19;;;;;;;13.00;8.00;;;;;;;7.12;68.16;99764.00;4965945;28;20027;-66
2021/12/17 14:20:51;;;;;;;13.10;8.43;;;;;;;7.05;69.28;99782.59;4977331;28;20093;-65